createdAt,value
2019-06-07T00:01:45.074Z,101400.38
2019-06-07T00:04:21.177Z,101403.05
2019-06-07T00:06:52.609Z,101412.42
2019-06-07T00:09:24.751Z,101405.94
2019-06-07T00:11:57.346Z,101414.92
2019-06-07T00:14:29.900Z,101414.92
2019-06-07T00:17:02.483Z,101407.23
2019-06-07T00:19:34.741Z,101411.64
2019-06-07T00:22:17.662Z,101411.25
2019-06-07T00:24:41.863Z,101408.77
2019-06-07T00:27:15.160Z,101408.95
2019-06-07T00:29:47.525Z,101415.16
2019-06-07T00:32:22.020Z,101415.53
2019-06-07T00:34:53.900Z,101420.97
2019-06-07T00:37:26.360Z,101420.87
2019-06-07T00:40:13.887Z,101419.61
2019-06-07T00:42:32.974Z,101415.47
2019-06-07T00:45:06.998Z,101410.95
2019-06-07T00:47:39.456Z,101406.88
2019-06-07T00:50:11.715Z,101406.11
2019-06-07T00:53:14.650Z,101405.44
2019-06-07T00:55:20.041Z,101411.27
2019-06-07T00:57:51.705Z,101409.14
2019-06-07T01:00:25.580Z,101402.06
2019-06-07T01:02:58.205Z,101398.17
2019-06-07T01:05:31.613Z,101399.59
2019-06-07T01:08:04.561Z,101401.48
2019-06-07T01:10:52.827Z,101407.14
2019-06-07T01:13:10.436Z,101403.94
2019-06-07T01:15:47.422Z,101399.31
2019-06-07T01:18:37.691Z,101404.66
2019-06-07T01:20:54.206Z,101402.51
2019-06-07T01:26:01.100Z,101404.13
2019-06-07T01:28:33.677Z,101400.36
2019-06-07T01:31:06.257Z,101403.50
2019-06-07T01:33:50.921Z,101398.07
2019-06-07T01:36:12.795Z,101406.13
2019-06-07T01:38:45.432Z,101402.51
2019-06-07T01:41:21.558Z,101412.65
2019-06-07T01:43:52.130Z,101402.78
2019-06-07T01:46:26.658Z,101417.57
2019-06-07T01:48:59.059Z,101417.96
2019-06-07T01:51:31.486Z,101426.54
2019-06-07T01:54:48.577Z,101428.27
2019-06-07T01:56:37.962Z,101431.09
2019-06-07T01:59:10.644Z,101428.62
2019-06-07T02:01:42.839Z,101429.33
2019-06-07T02:04:27.328Z,101432.75
2019-06-07T02:07:09.069Z,101435.97
2019-06-07T02:09:41.772Z,101444.06
2019-06-07T02:12:25.487Z,101438.91
2019-06-07T02:14:50.915Z,101436.44
2019-06-07T02:17:25.262Z,101437.78
2019-06-07T02:19:57.389Z,101433.92
2019-06-07T02:22:32.524Z,101433.58
2019-06-07T02:25:35.283Z,101437.35
2019-06-07T02:27:40.725Z,101432.78
2019-06-07T02:32:48.715Z,101433.37
2019-06-07T02:35:25.598Z,101438.02
2019-06-07T02:37:56.397Z,101438.88
2019-06-07T02:40:36.461Z,101440.69
2019-06-07T02:43:02.958Z,101448.16
2019-06-07T02:45:43.555Z,101445.21
2019-06-07T02:48:14.570Z,101444.38
2019-06-07T02:50:47.575Z,101446.54
2019-06-07T02:53:19.726Z,101443.50
2019-06-07T02:56:34.951Z,101441.95
2019-06-07T02:58:34.509Z,101437.16
2019-06-07T03:01:09.182Z,101436.92
2019-06-07T03:03:39.935Z,101444.38
2019-06-07T03:06:15.643Z,101431.41
2019-06-07T03:08:47.888Z,101434.69
2019-06-07T03:11:20.462Z,101437.07
2019-06-07T03:13:52.733Z,101435.19
2019-06-07T03:16:36.735Z,101441.70
2019-06-07T03:19:09.972Z,101442.09
2019-06-07T03:21:43.282Z,101445.17
2019-06-07T03:24:15.430Z,101448.81
2019-06-07T03:27:32.256Z,101449.14
2019-06-07T03:29:21.939Z,101448.27
2019-06-07T03:31:54.517Z,101449.78
2019-06-07T03:34:29.716Z,101443.38
2019-06-07T03:37:01.081Z,101438.11
2019-06-07T03:39:34.339Z,101433.05
2019-06-07T03:42:08.567Z,101431.05
2019-06-07T03:44:41.643Z,101434.65
2019-06-07T03:47:14.258Z,101428.09
2019-06-07T03:49:46.754Z,101433.75
2019-06-07T03:52:19.246Z,101439.79
2019-06-07T03:54:51.887Z,101446.45
2019-06-07T03:57:24.419Z,101444.48
2019-06-07T03:59:57.269Z,101440.69
2019-06-07T04:02:30.389Z,101442.32
2019-06-07T04:05:02.615Z,101438.66
2019-06-07T04:07:38.785Z,101446.52
2019-06-07T04:10:08.906Z,101444.97
2019-06-07T04:12:43.978Z,101438.62
2019-06-07T04:15:15.763Z,101440.30
2019-06-07T04:18:01.448Z,101437.83
2019-06-07T04:20:24.170Z,101438.67
2019-06-07T04:22:56.158Z,101440.34
2019-06-07T04:25:29.071Z,101437.17
2019-06-07T04:28:01.832Z,101436.34
2019-06-07T04:30:45.307Z,101426.51
2019-06-07T04:33:17.994Z,101424.17
2019-06-07T04:35:50.278Z,101427.48
2019-06-07T04:38:22.807Z,101423.11
2019-06-07T04:40:55.257Z,101431.89
2019-06-07T04:43:29.946Z,101429.53
2019-06-07T04:46:02.271Z,101436.13
2019-06-07T04:48:41.154Z,101432.89
2019-06-07T04:51:10.804Z,101437.42
2019-06-07T04:53:43.476Z,101436.18
2019-06-07T04:56:15.733Z,101437.69
2019-06-07T04:58:48.519Z,101433.33
2019-06-07T05:01:27.227Z,101435.78
2019-06-07T05:03:55.444Z,101442.53
2019-06-07T05:06:27.892Z,101442.89
2019-06-07T05:09:01.429Z,101435.17
2019-06-07T05:11:36.373Z,101434.28
2019-06-07T05:14:10.361Z,101429.61
2019-06-07T05:16:44.261Z,101427.73
2019-06-07T05:19:17.112Z,101427.23
2019-06-07T05:22:03.488Z,101419.25
2019-06-07T05:24:25.118Z,101427.42
2019-06-07T05:26:57.324Z,101423.33
2019-06-07T05:29:30.812Z,101420.25
